createdAt,value
2022-08-18T00:00:30.365Z,17.65
2022-08-18T00:01:04.885Z,16.23
2022-08-18T00:01:41.284Z,19.08
2022-08-18T00:02:16.615Z,12.57
2022-08-18T00:03:01.503Z,13.48
2022-08-18T00:03:56.000Z,14.98
2022-08-18T00:04:41.919Z,18.00
2022-08-18T00:05:23.398Z,20.85
2022-08-18T00:05:58.515Z,14.27
2022-08-18T00:06:32.714Z,13.15
2022-08-18T00:07:07.789Z,17.35
2022-08-18T00:07:42.887Z,12.90
2022-08-18T00:08:23.642Z,15.48
2022-08-18T00:08:57.305Z,19.63
2022-08-18T00:09:34.839Z,14.90
2022-08-18T00:10:17.925Z,17.50
2022-08-18T00:10:54.508Z,17.10
2022-08-18T00:11:41.551Z,16.17
2022-08-18T00:12:17.866Z,12.38
2022-08-18T00:12:56.194Z,12.07
2022-08-18T00:13:33.537Z,14.88
2022-08-18T00:14:07.330Z,14.15
2022-08-18T00:14:43.317Z,15.98
2022-08-18T00:15:16.749Z,18.48
2022-08-18T00:15:50.831Z,13.43
2022-08-18T00:16:25.626Z,12.50
2022-08-18T00:17:00.560Z,15.48
2022-08-18T00:17:36.086Z,16.42
2022-08-18T00:18:12.179Z,14.68
2022-08-18T00:18:46.293Z,21.38
2022-08-18T00:19:20.460Z,15.23
2022-08-18T00:20:16.383Z,15.30
2022-08-18T00:20:50.230Z,13.93
2022-08-18T00:21:23.641Z,17.55
2022-08-18T00:21:57.172Z,16.92
2022-08-18T00:22:32.591Z,21.95
2022-08-18T00:23:06.917Z,19.17
2022-08-18T00:23:41.104Z,12.68
2022-08-18T00:24:17.156Z,20.00
2022-08-18T00:24:53.910Z,14.52
2022-08-18T00:25:28.682Z,19.63
2022-08-18T00:26:05.551Z,18.90
2022-08-18T00:26:39.807Z,16.17
2022-08-18T00:27:15.126Z,13.07
2022-08-18T00:27:49.956Z,16.05
2022-08-18T00:28:24.160Z,20.50
2022-08-18T00:28:58.129Z,19.98
2022-08-18T00:29:32.254Z,13.25
2022-08-18T00:30:09.669Z,14.13
2022-08-18T00:30:43.601Z,17.00
2022-08-18T00:31:17.935Z,19.13
2022-08-18T00:31:53.458Z,16.52
2022-08-18T00:32:28.497Z,14.50
2022-08-18T00:33:03.405Z,19.02
2022-08-18T00:33:38.438Z,15.55
2022-08-18T00:34:12.561Z,18.25
2022-08-18T00:34:46.351Z,12.63
2022-08-18T00:35:22.873Z,20.20
2022-08-18T00:35:57.286Z,18.55
2022-08-18T00:36:33.106Z,18.67
2022-08-18T00:37:07.511Z,17.00
2022-08-18T00:37:42.431Z,15.20
2022-08-18T00:38:24.441Z,17.13
2022-08-18T00:38:59.824Z,17.27
2022-08-18T00:39:38.436Z,16.13
2022-08-18T00:40:20.037Z,16.88
2022-08-18T00:40:55.214Z,18.23
2022-08-18T00:41:31.143Z,13.98
2022-08-18T00:42:13.109Z,15.80
2022-08-18T00:43:04.863Z,19.00
2022-08-18T00:43:41.481Z,16.85
2022-08-18T00:44:17.273Z,14.43
2022-08-18T00:44:50.607Z,20.00
2022-08-18T00:45:27.864Z,19.38
2022-08-18T00:46:02.286Z,16.83
2022-08-18T00:46:37.643Z,15.60
2022-08-18T00:47:12.411Z,20.83
2022-08-18T00:48:07.504Z,13.05
2022-08-18T00:48:41.713Z,18.35
2022-08-18T00:49:25.608Z,15.23
2022-08-18T00:49:58.817Z,18.98
2022-08-18T00:50:33.609Z,15.93
2022-08-18T00:51:09.832Z,18.73
2022-08-18T00:51:48.723Z,17.50
2022-08-18T00:52:24.556Z,19.17
2022-08-18T00:53:00.953Z,16.83
2022-08-18T00:53:37.471Z,21.02
2022-08-18T00:54:12.280Z,16.30
2022-08-18T00:54:46.797Z,16.92
2022-08-18T00:55:23.796Z,16.58
2022-08-18T00:55:58.786Z,18.83
2022-08-18T00:56:37.115Z,14.88
2022-08-18T00:57:10.735Z,15.20
2022-08-18T00:57:45.085Z,17.13
2022-08-18T00:58:25.446Z,18.25
2022-08-18T00:59:01.027Z,15.60
2022-08-18T00:59:39.247Z,14.55
2022-08-18T01:00:21.361Z,19.83
2022-08-18T01:00:55.906Z,14.27
2022-08-18T01:01:31.793Z,15.77
2022-08-18T01:02:08.114Z,20.08
2022-08-18T01:02:47.356Z,18.15
2022-08-18T01:03:25.271Z,19.17
2022-08-18T01:04:02.444Z,15.40
2022-08-18T01:04:39.286Z,15.68
2022-08-18T01:05:19.347Z,22.13
2022-08-18T01:05:59.276Z,15.85
2022-08-18T01:06:36.171Z,18.52
2022-08-18T01:07:13.130Z,20.27
2022-08-18T01:07:49.106Z,17.42
2022-08-18T01:08:28.708Z,19.30
2022-08-18T01:09:04.428Z,25.08
2022-08-18T01:09:40.943Z,24.48
2022-08-18T01:10:16.506Z,19.02
2022-08-18T01:10:53.008Z,20.80
2022-08-18T01:11:27.981Z,19.00
2022-08-18T01:12:44.373Z,22.77
2022-08-18T01:12:57.356Z,20.90
2022-08-18T01:13:34.090Z,22.17
2022-08-18T01:14:09.781Z,23.77
2022-08-18T01:14:45.019Z,19.85
2022-08-18T01:15:28.859Z,23.88
2022-08-18T01:16:25.356Z,22.90
2022-08-18T01:17:26.093Z,22.17
2022-08-18T01:18:18.430Z,20.35
2022-08-18T01:19:10.486Z,17.52
2022-08-18T01:20:02.799Z,20.70
2022-08-18T01:20:58.473Z,19.08
2022-08-18T01:21:52.792Z,23.10
2022-08-18T01:22:30.070Z,22.05
2022-08-18T01:23:09.870Z,23.02
2022-08-18T01:23:43.798Z,18.17
2022-08-18T01:24:21.630Z,20.77
2022-08-18T01:25:14.939Z,22.08
2022-08-18T01:26:01.579Z,19.40
2022-08-18T01:26:45.705Z,22.67
2022-08-18T01:27:20.492Z,19.75
2022-08-18T01:27:59.794Z,26.52
2022-08-18T01:28:38.298Z,19.10
2022-08-18T01:29:18.694Z,16.63
2022-08-18T01:29:53.940Z,27.40
2022-08-18T01:30:29.306Z,21.48
2022-08-18T01:31:04.446Z,20.25
2022-08-18T01:31:39.953Z,25.98
2022-08-18T01:32:28.844Z,24.83
2022-08-18T01:33:05.675Z,21.25
2022-08-18T01:33:42.194Z,24.25
2022-08-18T01:34:22.481Z,21.60
2022-08-18T01:34:56.943Z,22.88
2022-08-18T01:35:36.188Z,27.25
2022-08-18T01:36:18.352Z,22.30
2022-08-18T01:36:54.326Z,21.63
2022-08-18T01:37:31.192Z,24.83
2022-08-18T01:38:06.586Z,24.88
2022-08-18T01:38:41.299Z,22.67
2022-08-18T01:39:14.939Z,22.48
2022-08-18T01:41:23.807Z,18.95
2022-08-18T01:41:28.697Z,21.45
2022-08-18T01:41:58.800Z,20.33
2022-08-18T01:42:33.307Z,21.90
2022-08-18T01:43:09.139Z,20.80
2022-08-18T01:43:43.475Z,24.15
2022-08-18T01:44:17.541Z,20.70
2022-08-18T01:44:52.400Z,20.40
2022-08-18T01:45:26.477Z,21.83
2022-08-18T01:46:01.531Z,19.23
2022-08-18T01:46:36.355Z,17.38
2022-08-18T01:47:11.918Z,19.85
2022-08-18T01:47:58.206Z,20.63
2022-08-18T01:48:33.732Z,23.58
2022-08-18T01:49:09.057Z,19.55
2022-08-18T01:49:43.879Z,19.42
2022-08-18T01:50:18.952Z,18.63
2022-08-18T01:50:54.208Z,23.75
2022-08-18T01:51:40.247Z,26.10
2022-08-18T01:52:18.897Z,19.67
2022-08-18T01:52:53.940Z,25.60
2022-08-18T01:53:29.209Z,24.88
2022-08-18T01:54:02.961Z,19.45
2022-08-18T01:54:37.969Z,30.00
2022-08-18T01:55:14.638Z,19.65
2022-08-18T01:55:49.477Z,19.48
2022-08-18T01:56:24.597Z,18.42
2022-08-18T01:56:58.498Z,21.67
2022-08-18T01:57:31.881Z,19.95
2022-08-18T01:58:07.552Z,23.50
2022-08-18T01:58:41.622Z,22.73
2022-08-18T01:59:16.172Z,21.30
2022-08-18T01:59:51.175Z,26.63
2022-08-18T02:00:29.052Z,22.00
2022-08-18T02:01:03.510Z,22.90
2022-08-18T02:01:48.533Z,20.70
2022-08-18T02:02:29.685Z,22.98
2022-08-18T02:03:08.437Z,18.83
2022-08-18T02:03:49.810Z,20.17
2022-08-18T02:04:41.338Z,23.35
2022-08-18T02:05:18.417Z,23.33
2022-08-18T02:05:53.429Z,22.58
2022-08-18T02:06:32.145Z,19.67
2022-08-18T02:07:09.393Z,23.98
2022-08-18T02:07:44.487Z,20.25
2022-08-18T02:08:18.464Z,20.73
2022-08-18T02:08:55.302Z,19.88
2022-08-18T02:09:29.128Z,19.30
2022-08-18T02:10:04.045Z,23.60
2022-08-18T02:10:42.700Z,19.30
2022-08-18T02:11:16.850Z,23.90
2022-08-18T02:11:50.436Z,18.88
2022-08-18T02:12:28.745Z,25.17
2022-08-18T02:13:03.125Z,19.98
2022-08-18T02:13:37.873Z,18.27
2022-08-18T02:14:13.517Z,23.27
2022-08-18T02:14:47.330Z,22.20
2022-08-18T02:15:20.826Z,23.40
2022-08-18T02:15:55.136Z,18.75
2022-08-18T02:16:29.646Z,27.15
2022-08-18T02:17:04.211Z,23.75
2022-08-18T02:17:40.038Z,21.58
2022-08-18T02:18:37.205Z,20.88
2022-08-18T02:19:10.610Z,23.73
2022-08-18T02:19:46.407Z,26.45
2022-08-18T02:20:21.394Z,23.30
2022-08-18T02:20:55.163Z,22.33
2022-08-18T02:21:31.124Z,21.90
2022-08-18T02:22:06.283Z,31.27
2022-08-18T02:22:39.778Z,21.95
2022-08-18T02:23:13.971Z,24.70
2022-08-18T02:23:53.159Z,27.20
2022-08-18T02:25:03.962Z,26.65
2022-08-18T02:25:41.133Z,22.02
2022-08-18T02:26:17.022Z,26.02
2022-08-18T02:26:54.418Z,24.92
2022-08-18T02:27:29.088Z,29.85
2022-08-18T02:28:02.852Z,27.98
2022-08-18T02:28:37.765Z,19.60
2022-08-18T02:29:11.334Z,25.48
2022-08-18T02:29:45.094Z,26.73
2022-08-18T02:30:20.292Z,23.88
2022-08-18T02:30:53.806Z,24.92
2022-08-18T02:31:27.442Z,21.27
2022-08-18T02:32:01.091Z,28.05
2022-08-18T02:32:36.371Z,23.77
2022-08-18T02:33:11.411Z,22.63
2022-08-18T02:33:51.837Z,26.98
2022-08-18T02:34:27.656Z,26.20
2022-08-18T02:35:03.274Z,23.90
2022-08-18T02:35:41.367Z,22.25
2022-08-18T02:36:15.710Z,30.98
2022-08-18T02:36:49.548Z,26.17
2022-08-18T02:37:23.839Z,23.23
2022-08-18T02:38:01.484Z,25.10
2022-08-18T02:38:38.115Z,22.50
2022-08-18T02:39:15.692Z,26.00
2022-08-18T02:39:50.578Z,38.33
2022-08-18T02:40:26.631Z,26.83
2022-08-18T02:41:01.030Z,67.53
2022-08-18T02:41:37.626Z,32.72
2022-08-18T02:42:15.433Z,29.55
2022-08-18T02:42:50.471Z,21.67
2022-08-18T02:43:25.621Z,27.33
2022-08-18T02:44:00.430Z,29.83
2022-08-18T02:44:33.902Z,31.10
2022-08-18T02:45:09.718Z,29.58
2022-08-18T02:45:44.192Z,25.48
2022-08-18T02:46:17.912Z,25.80
2022-08-18T02:46:55.223Z,30.17
2022-08-18T02:47:33.569Z,24.70
2022-08-18T02:48:07.909Z,26.42
2022-08-18T02:48:43.901Z,26.15
2022-08-18T02:49:17.587Z,32.85
2022-08-18T02:49:51.920Z,33.13
2022-08-18T02:50:27.564Z,35.45
2022-08-18T02:51:02.336Z,38.75
2022-08-18T02:51:35.453Z,31.73
2022-08-18T02:52:09.571Z,43.45
2022-08-18T02:52:43.796Z,36.60
2022-08-18T02:53:21.936Z,36.58
2022-08-18T02:54:00.140Z,30.13
2022-08-18T02:54:34.756Z,40.00
2022-08-18T02:55:09.389Z,39.78
2022-08-18T02:55:45.557Z,43.33
2022-08-18T02:56:33.712Z,38.03
2022-08-18T02:57:17.676Z,37.28
2022-08-18T02:57:52.689Z,39.60
2022-08-18T02:58:31.763Z,44.33
2022-08-18T02:59:42.824Z,48.90
2022-08-18T03:00:24.310Z,45.90
2022-08-18T03:01:00.518Z,42.22
2022-08-18T03:01:37.856Z,47.90
2022-08-18T03:02:13.371Z,42.03
2022-08-18T03:02:47.605Z,49.85
2022-08-18T03:03:21.292Z,48.72
2022-08-18T03:03:56.943Z,47.75
2022-08-18T03:04:32.610Z,48.97
2022-08-18T03:05:08.623Z,50.58
2022-08-18T03:05:48.914Z,47.95
2022-08-18T03:06:23.700Z,55.60
2022-08-18T03:06:57.579Z,45.72
2022-08-18T03:07:30.641Z,43.40
2022-08-18T03:08:06.076Z,53.33
2022-08-18T03:08:40.739Z,53.03
2022-08-18T03:09:15.816Z,43.60
2022-08-18T03:09:51.564Z,43.35
2022-08-18T03:10:32.386Z,48.85
2022-08-18T03:11:13.977Z,38.33
2022-08-18T03:11:49.524Z,48.47
2022-08-18T03:12:23.750Z,45.53
2022-08-18T03:12:57.305Z,44.75
2022-08-18T03:13:31.755Z,42.80
2022-08-18T03:14:05.701Z,44.78
2022-08-18T03:14:40.193Z,41.80
2022-08-18T03:15:15.575Z,43.33
2022-08-18T03:15:51.186Z,44.05
2022-08-18T03:16:28.405Z,39.42
2022-08-18T03:17:05.973Z,35.50
2022-08-18T03:17:40.116Z,44.40
2022-08-18T03:18:15.723Z,40.60
2022-08-18T03:18:51.412Z,37.83
2022-08-18T03:19:25.813Z,38.63
2022-08-18T03:19:59.900Z,38.55
2022-08-18T03:20:36.365Z,42.13
2022-08-18T03:21:10.522Z,37.80
2022-08-18T03:21:45.295Z,37.38
2022-08-18T03:22:27.640Z,39.80
2022-08-18T03:23:05.794Z,47.47
2022-08-18T03:23:45.388Z,38.80
2022-08-18T03:24:35.316Z,45.17
2022-08-18T03:25:11.085Z,39.83
2022-08-18T03:25:46.433Z,40.80
2022-08-18T03:26:23.002Z,35.35
2022-08-18T03:26:57.674Z,39.47
2022-08-18T03:27:31.121Z,36.65
2022-08-18T03:28:07.981Z,35.47
2022-08-18T03:28:42.171Z,34.72
2022-08-18T03:29:16.150Z,41.50
2022-08-18T03:29:51.155Z,36.78
2022-08-18T03:30:25.180Z,32.55
2022-08-18T03:30:58.303Z,31.55
2022-08-18T03:31:32.710Z,31.75
2022-08-18T03:32:07.262Z,38.42
2022-08-18T03:32:40.970Z,48.67
2022-08-18T03:33:20.556Z,38.63
2022-08-18T03:33:55.205Z,45.55
2022-08-18T03:34:33.145Z,33.13
2022-08-18T03:35:09.541Z,32.72
2022-08-18T03:35:43.672Z,30.33
2022-08-18T03:36:20.096Z,34.40
2022-08-18T03:36:54.907Z,33.55
2022-08-18T03:37:30.005Z,34.00
2022-08-18T03:38:03.763Z,32.85
2022-08-18T03:38:37.462Z,29.83
2022-08-18T03:39:13.743Z,31.55
2022-08-18T03:39:48.126Z,32.80
2022-08-18T03:40:22.569Z,30.98
2022-08-18T03:40:56.989Z,27.38
2022-08-18T03:41:57.342Z,38.38
2022-08-18T03:42:26.621Z,33.63
2022-08-18T03:43:02.121Z,33.35
2022-08-18T03:43:50.693Z,35.75
2022-08-18T03:44:27.073Z,30.17
2022-08-18T03:45:00.779Z,29.90
2022-08-18T03:45:47.268Z,31.42
2022-08-18T03:46:22.394Z,30.13
2022-08-18T03:46:56.001Z,36.05
2022-08-18T03:47:30.076Z,40.17
2022-08-18T03:48:05.378Z,32.80
2022-08-18T03:48:41.855Z,33.40
2022-08-18T03:49:15.017Z,30.23
2022-08-18T03:49:50.746Z,32.35
2022-08-18T03:50:26.458Z,33.95
2022-08-18T03:51:05.458Z,30.95
2022-08-18T03:51:40.393Z,33.28
2022-08-18T03:52:15.576Z,29.75
2022-08-18T03:52:48.686Z,34.28
2022-08-18T03:53:23.664Z,35.78
2022-08-18T03:53:59.835Z,34.75
2022-08-18T03:54:34.444Z,33.80
2022-08-18T03:55:11.478Z,41.17
2022-08-18T03:55:46.380Z,30.65
2022-08-18T03:56:21.812Z,39.03
2022-08-18T03:56:57.698Z,31.55
2022-08-18T03:57:49.329Z,38.83
2022-08-18T03:58:23.714Z,31.38
2022-08-18T03:59:00.734Z,31.83
2022-08-18T03:59:34.910Z,33.00
2022-08-18T04:00:15.988Z,35.83
2022-08-18T04:00:51.042Z,56.10
2022-08-18T04:01:27.366Z,45.20
2022-08-18T04:02:03.498Z,36.65
2022-08-18T04:02:37.897Z,34.17
2022-08-18T04:03:12.737Z,34.28
2022-08-18T04:03:46.838Z,39.67
2022-08-18T04:04:23.316Z,28.40
2022-08-18T04:04:56.883Z,39.72
2022-08-18T04:05:31.484Z,30.75
2022-08-18T04:06:07.785Z,52.03
2022-08-18T04:06:45.947Z,36.22
2022-08-18T04:07:20.660Z,34.33
2022-08-18T04:07:55.381Z,33.95
2022-08-18T04:08:29.131Z,175.57
2022-08-18T04:09:05.305Z,40.33
2022-08-18T04:09:40.107Z,40.00
2022-08-18T04:10:19.083Z,35.78
2022-08-18T04:10:55.542Z,33.55
2022-08-18T04:11:36.508Z,36.55
2022-08-18T04:12:15.468Z,38.45
2022-08-18T04:12:51.241Z,42.00
2022-08-18T04:13:25.359Z,45.85
2022-08-18T04:13:58.438Z,43.25
2022-08-18T04:14:33.095Z,38.70
2022-08-18T04:15:07.797Z,31.60
2022-08-18T04:15:41.302Z,37.20
2022-08-18T04:16:16.181Z,35.00
2022-08-18T04:16:49.451Z,39.95
2022-08-18T04:17:26.044Z,39.63
2022-08-18T04:18:04.470Z,43.13
2022-08-18T04:18:39.053Z,44.97
2022-08-18T04:19:14.383Z,44.95
2022-08-18T04:20:02.105Z,66.57
2022-08-18T04:20:36.355Z,49.63
2022-08-18T04:21:11.179Z,47.80
2022-08-18T04:21:46.585Z,60.22
2022-08-18T04:22:21.259Z,53.65
2022-08-18T04:22:55.114Z,51.35
2022-08-18T04:23:29.877Z,45.78
2022-08-18T04:24:13.979Z,47.70
2022-08-18T04:24:51.253Z,51.85
2022-08-18T04:25:32.179Z,53.05
2022-08-18T04:26:07.823Z,52.92
2022-08-18T04:26:43.366Z,54.63
2022-08-18T04:27:19.709Z,50.25
2022-08-18T04:27:57.882Z,47.50
2022-08-18T04:28:33.622Z,47.33
2022-08-18T04:29:08.973Z,48.80
2022-08-18T04:29:43.280Z,46.10
2022-08-18T04:30:19.186Z,44.20
2022-08-18T04:30:53.758Z,47.10
2022-08-18T04:31:27.647Z,52.22
2022-08-18T04:32:05.159Z,51.67
2022-08-18T04:32:40.565Z,57.00
2022-08-18T04:33:15.117Z,52.95
2022-08-18T04:33:51.382Z,59.67
2022-08-18T04:34:25.405Z,60.72
2022-08-18T04:35:02.717Z,55.60
2022-08-18T04:35:37.532Z,57.05
2022-08-18T04:36:19.187Z,59.05
2022-08-18T04:36:57.349Z,58.47
2022-08-18T04:37:33.185Z,54.97
2022-08-18T04:38:12.237Z,62.53
2022-08-18T04:38:45.929Z,68.82
2022-08-18T04:39:20.679Z,66.22
2022-08-18T04:39:55.726Z,69.60
2022-08-18T04:40:30.455Z,72.75
2022-08-18T04:41:05.062Z,76.95
2022-08-18T04:41:40.118Z,84.38
2022-08-18T04:42:14.776Z,85.90
2022-08-18T04:42:51.719Z,85.80
2022-08-18T04:43:25.410Z,81.30
2022-08-18T04:43:59.992Z,87.35
2022-08-18T04:44:34.969Z,75.28
2022-08-18T04:45:09.293Z,83.90
2022-08-18T04:45:42.446Z,80.68
2022-08-18T04:46:16.691Z,85.53
2022-08-18T04:46:53.807Z,85.10
2022-08-18T04:47:28.444Z,83.57
2022-08-18T04:48:04.614Z,84.35
2022-08-18T04:48:39.283Z,96.68
2022-08-18T04:49:13.640Z,93.10
2022-08-18T04:49:49.409Z,88.68
2022-08-18T04:50:25.147Z,95.90
2022-08-18T04:51:07.573Z,102.75
2022-08-18T04:52:36.752Z,100.32
2022-08-18T04:52:56.786Z,116.55
2022-08-18T04:53:46.110Z,107.60
2022-08-18T04:54:19.174Z,108.53
2022-08-18T04:54:53.766Z,116.63
2022-08-18T04:55:30.201Z,147.73
2022-08-18T04:56:04.685Z,162.88
2022-08-18T04:56:40.058Z,149.27
2022-08-18T04:57:17.374Z,139.65
2022-08-18T04:57:53.107Z,137.02
2022-08-18T04:58:28.180Z,142.00
2022-08-18T04:59:03.991Z,149.27
2022-08-18T04:59:38.360Z,158.82
2022-08-18T05:00:14.691Z,153.43
2022-08-18T05:00:57.823Z,140.90
2022-08-18T05:01:35.555Z,156.07
2022-08-18T05:02:14.186Z,153.95
2022-08-18T05:02:50.055Z,143.13
2022-08-18T05:03:24.838Z,151.18
2022-08-18T05:04:00.349Z,157.40
2022-08-18T05:04:35.540Z,144.73
2022-08-18T05:05:10.238Z,145.98
2022-08-18T05:05:46.737Z,155.02
2022-08-18T05:06:21.873Z,152.10
2022-08-18T05:06:57.805Z,159.85
2022-08-18T05:07:30.932Z,147.57
2022-08-18T05:08:04.968Z,162.43
2022-08-18T05:08:39.387Z,158.57
2022-08-18T05:09:16.880Z,148.43
2022-08-18T05:09:57.597Z,163.48
2022-08-18T05:10:32.619Z,155.77
2022-08-18T05:11:07.272Z,148.48
2022-08-18T05:11:44.896Z,158.02
2022-08-18T05:12:18.342Z,153.18
2022-08-18T05:12:57.565Z,148.82
2022-08-18T05:13:33.688Z,150.90
2022-08-18T05:14:09.385Z,159.55
2022-08-18T05:14:45.187Z,150.50
2022-08-18T05:15:20.733Z,160.00
2022-08-18T05:16:09.954Z,143.07
2022-08-18T05:16:49.159Z,154.48
2022-08-18T05:17:30.501Z,147.02
2022-08-18T05:18:06.690Z,149.05
2022-08-18T05:18:47.102Z,152.05
2022-08-18T05:19:23.326Z,155.50
2022-08-18T05:20:01.881Z,146.18
2022-08-18T05:20:37.336Z,144.77
2022-08-18T05:21:16.203Z,153.43
2022-08-18T05:21:51.314Z,153.07
2022-08-18T05:22:30.391Z,149.80
2022-08-18T05:23:07.309Z,150.82
2022-08-18T05:23:41.134Z,143.60
2022-08-18T05:24:15.042Z,134.57
2022-08-18T05:24:51.014Z,136.18
2022-08-18T05:26:17.238Z,131.15
2022-08-18T05:26:51.733Z,134.00
2022-08-18T05:27:25.964Z,136.13
2022-08-18T05:28:03.383Z,131.80
2022-08-18T05:28:38.602Z,129.80
2022-08-18T05:29:18.949Z,121.82
2022-08-18T05:29:56.118Z,125.80
2022-08-18T05:30:30.647Z,119.40
2022-08-18T05:31:13.156Z,121.20
2022-08-18T05:31:48.613Z,123.03
2022-08-18T05:32:30.416Z,119.10
2022-08-18T05:33:17.086Z,121.78
2022-08-18T05:33:53.168Z,123.35
2022-08-18T05:34:27.975Z,122.30
2022-08-18T05:35:05.286Z,126.78
2022-08-18T05:35:44.756Z,131.60
2022-08-18T05:36:28.709Z,129.70
2022-08-18T05:37:11.050Z,128.75
2022-08-18T05:37:50.498Z,116.05
2022-08-18T05:38:32.755Z,106.18
2022-08-18T05:39:13.840Z,107.80
2022-08-18T05:39:53.844Z,97.68
2022-08-18T05:40:29.619Z,98.88
2022-08-18T05:41:13.991Z,96.45
2022-08-18T05:41:53.550Z,105.85
2022-08-18T05:42:29.071Z,101.50
2022-08-18T05:43:05.934Z,97.35
2022-08-18T05:43:51.787Z,98.72
2022-08-18T05:44:27.801Z,103.80
2022-08-18T05:45:02.342Z,95.78
2022-08-18T05:45:39.311Z,101.50
2022-08-18T05:46:12.906Z,96.80
2022-08-18T05:46:49.128Z,99.53
2022-08-18T05:47:25.515Z,97.80
2022-08-18T05:48:00.556Z,80.63
2022-08-18T05:48:41.227Z,89.45
2022-08-18T05:49:18.806Z,87.70
2022-08-18T05:49:53.794Z,87.43
2022-08-18T05:50:27.928Z,85.03
2022-08-18T05:51:05.222Z,78.75
2022-08-18T05:51:43.527Z,80.97
2022-08-18T05:52:18.899Z,72.80
2022-08-18T05:52:56.336Z,79.30
2022-08-18T05:53:44.769Z,82.05
2022-08-18T05:54:37.601Z,72.85
2022-08-18T05:55:32.271Z,81.90
2022-08-18T05:56:24.379Z,78.47
2022-08-18T05:57:00.274Z,77.97
2022-08-18T05:57:38.297Z,79.80
2022-08-18T05:58:16.042Z,83.35
2022-08-18T05:58:53.149Z,79.57
2022-08-18T05:59:30.280Z,69.90
2022-08-18T06:00:07.169Z,66.65
2022-08-18T06:00:49.014Z,61.60
2022-08-18T06:01:25.710Z,57.33
2022-08-18T06:02:02.450Z,66.13
2022-08-18T06:02:39.301Z,58.13
2022-08-18T06:03:17.415Z,57.90
2022-08-18T06:03:53.912Z,52.58
2022-08-18T06:04:32.081Z,54.17
2022-08-18T06:05:13.039Z,55.25
2022-08-18T06:05:51.363Z,57.75
2022-08-18T06:06:30.247Z,54.28
2022-08-18T06:07:06.454Z,53.75
2022-08-18T06:07:42.916Z,59.15
2022-08-18T06:08:20.175Z,57.42
2022-08-18T06:08:58.253Z,58.53
2022-08-18T06:09:34.550Z,55.70
2022-08-18T06:10:11.523Z,46.75
2022-08-18T06:10:47.939Z,55.65
2022-08-18T06:11:23.083Z,52.70
2022-08-18T06:12:06.857Z,49.75
2022-08-18T06:12:47.758Z,49.25
2022-08-18T06:13:25.577Z,53.58
2022-08-18T06:14:00.863Z,50.08
2022-08-18T06:14:34.705Z,57.47
2022-08-18T06:15:14.510Z,54.60
2022-08-18T06:16:25.894Z,49.50
2022-08-18T06:17:06.587Z,47.05
2022-08-18T06:17:58.041Z,53.42
2022-08-18T06:18:45.251Z,54.22
2022-08-18T06:19:30.142Z,44.45
2022-08-18T06:20:12.026Z,44.53
2022-08-18T06:20:54.478Z,46.53
2022-08-18T06:21:38.307Z,48.10
2022-08-18T06:22:20.881Z,47.55
2022-08-18T06:22:59.126Z,61.17
2022-08-18T06:23:37.493Z,54.97
2022-08-18T06:24:19.469Z,53.97
2022-08-18T06:24:58.426Z,50.65
2022-08-18T06:25:38.227Z,49.55
2022-08-18T06:26:50.554Z,50.97
2022-08-18T06:27:32.144Z,43.42
2022-08-18T06:28:08.208Z,51.50
2022-08-18T06:28:52.761Z,44.55
2022-08-18T06:29:35.374Z,51.90
2022-08-18T06:30:15.165Z,43.85
2022-08-18T06:30:52.943Z,58.70
2022-08-18T06:31:30.521Z,54.03
2022-08-18T06:32:08.999Z,53.35
2022-08-18T06:32:57.468Z,45.53
2022-08-18T06:33:43.369Z,44.83
2022-08-18T06:34:28.139Z,48.05
2022-08-18T06:35:09.711Z,51.60
2022-08-18T06:35:46.967Z,53.80
2022-08-18T06:36:28.430Z,47.15
2022-08-18T06:37:06.375Z,50.83
2022-08-18T06:37:59.310Z,49.58
2022-08-18T06:38:39.796Z,48.40
2022-08-18T06:39:49.428Z,50.42
2022-08-18T06:40:24.292Z,45.90
2022-08-18T06:41:03.463Z,67.32
2022-08-18T06:41:43.043Z,55.45
2022-08-18T06:42:22.243Z,55.30
2022-08-18T06:42:56.113Z,52.47
2022-08-18T06:43:36.084Z,54.20
2022-08-18T06:44:13.721Z,52.70
2022-08-18T06:44:49.215Z,50.30
2022-08-18T06:45:33.966Z,53.25
2022-08-18T06:46:18.197Z,55.22
2022-08-18T06:46:55.578Z,57.85
2022-08-18T06:47:34.869Z,55.38
2022-08-18T06:48:15.115Z,60.03
2022-08-18T06:48:52.754Z,52.30
2022-08-18T06:49:35.327Z,62.05
2022-08-18T06:50:13.328Z,55.80
2022-08-18T06:50:50.576Z,57.70
2022-08-18T06:51:28.614Z,67.43
2022-08-18T06:52:18.150Z,61.47
2022-08-18T06:52:56.733Z,55.83
2022-08-18T06:53:45.705Z,64.20
2022-08-18T06:54:32.151Z,62.50
2022-08-18T06:55:07.015Z,57.38
2022-08-18T06:55:43.028Z,58.50
2022-08-18T06:56:25.940Z,77.03
2022-08-18T06:57:01.900Z,57.33
2022-08-18T06:57:38.827Z,53.88
2022-08-18T06:58:22.610Z,52.13
2022-08-18T06:58:57.299Z,54.78
2022-08-18T06:59:33.781Z,59.60
2022-08-18T07:00:11.990Z,57.50
2022-08-18T07:01:00.530Z,55.13
2022-08-18T07:01:36.095Z,66.75
2022-08-18T07:02:20.969Z,64.75
2022-08-18T07:02:58.981Z,58.25
2022-08-18T07:03:44.210Z,54.85
2022-08-18T07:04:38.823Z,45.60
2022-08-18T07:05:20.770Z,45.17
2022-08-18T07:06:02.832Z,44.17
2022-08-18T07:06:36.602Z,47.63
2022-08-18T07:07:40.392Z,50.10
2022-08-18T07:08:18.378Z,58.42
2022-08-18T07:08:53.756Z,63.03
2022-08-18T07:09:34.973Z,45.08
2022-08-18T07:10:30.069Z,53.65
2022-08-18T07:11:14.390Z,47.20
2022-08-18T07:12:06.596Z,53.50
2022-08-18T07:12:45.309Z,49.80
2022-08-18T07:13:21.805Z,51.13
2022-08-18T07:14:14.833Z,50.13
2022-08-18T07:14:54.466Z,47.47
2022-08-18T07:15:29.429Z,46.63
2022-08-18T07:16:26.322Z,42.25
2022-08-18T07:17:11.440Z,42.65
2022-08-18T07:17:50.637Z,38.80
2022-08-18T07:18:26.412Z,40.63
2022-08-18T07:19:07.664Z,33.38
2022-08-18T07:19:42.073Z,34.75
2022-08-18T07:20:22.483Z,32.30
2022-08-18T07:20:58.098Z,30.55
2022-08-18T07:21:33.078Z,27.80
2022-08-18T07:22:09.236Z,28.10
2022-08-18T07:22:59.811Z,31.50
2022-08-18T07:23:39.718Z,34.45
2022-08-18T07:24:24.771Z,29.05
2022-08-18T07:25:05.148Z,33.35
2022-08-18T07:25:40.748Z,27.58
2022-08-18T07:26:17.550Z,27.75
2022-08-18T07:27:02.766Z,27.90
2022-08-18T07:27:46.155Z,25.23
2022-08-18T07:28:30.722Z,28.67
2022-08-18T07:29:14.870Z,24.10
2022-08-18T07:30:06.502Z,23.08
2022-08-18T07:30:44.133Z,23.92
2022-08-18T07:31:42.017Z,22.58
2022-08-18T07:32:21.602Z,18.73
2022-08-18T07:33:00.444Z,23.38
2022-08-18T07:33:36.631Z,22.05
2022-08-18T07:34:14.558Z,20.30
2022-08-18T07:34:53.646Z,14.35
2022-08-18T07:35:31.949Z,19.90
2022-08-18T07:36:08.055Z,21.02
2022-08-18T07:36:47.688Z,20.58
2022-08-18T07:37:28.580Z,19.48
2022-08-18T07:38:38.466Z,19.02
2022-08-18T07:39:02.952Z,18.80
2022-08-18T07:39:47.230Z,20.00
2022-08-18T07:40:28.407Z,15.30
2022-08-18T07:41:05.580Z,16.38
2022-08-18T07:41:42.549Z,14.60
2022-08-18T07:42:53.633Z,15.48
2022-08-18T07:43:18.697Z,19.48
2022-08-18T07:43:59.471Z,15.63
2022-08-18T07:44:40.786Z,18.52
2022-08-18T07:45:19.579Z,13.13
2022-08-18T07:46:03.896Z,14.73
2022-08-18T07:46:48.108Z,19.27
2022-08-18T07:47:25.713Z,20.35
2022-08-18T07:48:15.877Z,18.80
2022-08-18T07:48:59.682Z,14.85
2022-08-18T07:49:36.161Z,16.77
2022-08-18T07:50:36.474Z,16.17
2022-08-18T07:51:09.441Z,12.13
2022-08-18T07:51:48.026Z,16.63
2022-08-18T07:52:36.474Z,12.57
2022-08-18T07:53:27.194Z,12.82
2022-08-18T07:54:05.359Z,12.82
2022-08-18T07:54:50.834Z,13.68
2022-08-18T07:55:30.800Z,15.30
2022-08-18T07:56:08.760Z,13.75
2022-08-18T07:56:49.894Z,15.63
2022-08-18T07:57:29.145Z,12.15
2022-08-18T07:58:10.972Z,18.27
2022-08-18T07:58:49.003Z,12.85
2022-08-18T07:59:25.978Z,16.05
2022-08-18T08:00:05.476Z,15.18
2022-08-18T08:00:59.874Z,11.48
2022-08-18T08:01:37.915Z,13.95
2022-08-18T08:02:19.044Z,20.55
2022-08-18T08:03:03.278Z,12.57
2022-08-18T08:03:42.883Z,14.80
2022-08-18T08:04:25.454Z,12.65
2022-08-18T08:05:03.327Z,13.55
2022-08-18T08:05:42.613Z,13.18
2022-08-18T08:06:17.697Z,16.13
2022-08-18T08:07:22.749Z,14.55
2022-08-18T08:07:53.741Z,14.45
2022-08-18T08:08:31.884Z,13.52
2022-08-18T08:09:13.785Z,13.45
2022-08-18T08:09:52.324Z,19.80
2022-08-18T08:10:35.627Z,10.82
2022-08-18T08:11:19.695Z,25.05
2022-08-18T08:11:56.695Z,15.05
2022-08-18T08:12:35.280Z,14.50
2022-08-18T08:13:16.967Z,12.95
2022-08-18T08:14:02.951Z,14.18